sensor_id;sensor_type;location;lat;lon;timestamp;P1;durP1;ratioP1;P2;durP2;ratioP2
77571;SDS011;67214;47.454;18.966;2023-04-24T00:02:01;13.88;;;7.72;;
77571;SDS011;67214;47.454;18.966;2023-04-24T00:04:29;11.60;;;8.00;;
77571;SDS011;67214;47.454;18.966;2023-04-24T00:06:57;8.88;;;7.70;;
77571;SDS011;67214;47.454;18.966;2023-04-24T00:09:25;11.95;;;7.65;;
77571;SDS011;67214;47.454;18.966;2023-04-24T00:11:53;12.80;;;7.40;;
77571;SDS011;67214;47.454;18.966;2023-04-24T00:14:21;12.13;;;8.33;;
77571;SDS011;67214;47.454;18.966;2023-04-24T00:16:49;12.20;;;8.10;;
77571;SDS011;67214;47.454;18.966;2023-04-24T00:19:17;9.93;;;7.37;;
77571;SDS011;67214;47.454;18.966;2023-04-24T00:21:46;11.22;;;7.87;;
77571;SDS011;67214;47.454;18.966;2023-04-24T00:24:16;11.90;;;7.17;;
77571;SDS011;67214;47.454;18.966;2023-04-24T00:26:44;12.82;;;7.60;;
77571;SDS011;67214;47.454;18.966;2023-04-24T00:29:11;12.82;;;7.28;;
77571;SDS011;67214;47.454;18.966;2023-04-24T00:31:39;10.15;;;7.08;;
77571;SDS011;67214;47.454;18.966;2023-04-24T00:34:07;9.90;;;6.97;;
77571;SDS011;67214;47.454;18.966;2023-04-24T00:36:34;16.17;;;8.18;;
77571;SDS011;67214;47.454;18.966;2023-04-24T00:39:02;10.48;;;7.83;;
77571;SDS011;67214;47.454;18.966;2023-04-24T00:41:29;11.63;;;7.58;;
77571;SDS011;67214;47.454;18.966;2023-04-24T00:43:58;9.35;;;7.17;;
77571;SDS011;67214;47.454;18.966;2023-04-24T00:46:25;12.50;;;7.97;;
77571;SDS011;67214;47.454;18.966;2023-04-24T00:48:53;9.93;;;8.05;;
77571;SDS011;67214;47.454;18.966;2023-04-24T00:51:22;11.80;;;7.58;;
77571;SDS011;67214;47.454;18.966;2023-04-24T00:53:50;11.48;;;8.35;;
77571;SDS011;67214;47.454;18.966;2023-04-24T00:56:17;9.75;;;7.37;;
77571;SDS011;67214;47.454;18.966;2023-04-24T00:58:46;15.38;;;8.00;;
77571;SDS011;67214;47.454;18.966;2023-04-24T01:01:14;9.68;;;6.92;;
77571;SDS011;67214;47.454;18.966;2023-04-24T01:03:42;14.50;;;7.83;;
77571;SDS011;67214;47.454;18.966;2023-04-24T01:06:10;8.88;;;7.37;;
77571;SDS011;67214;47.454;18.966;2023-04-24T01:08:38;9.35;;;7.33;;
77571;SDS011;67214;47.454;18.966;2023-04-24T01:11:07;11.12;;;8.20;;
77571;SDS011;67214;47.454;18.966;2023-04-24T01:13:35;12.85;;;7.85;;
77571;SDS011;67214;47.454;18.966;2023-04-24T01:16:02;10.75;;;7.50;;
77571;SDS011;67214;47.454;18.966;2023-04-24T01:18:30;11.85;;;7.28;;
77571;SDS011;67214;47.454;18.966;2023-04-24T01:20:58;9.95;;;6.97;;
77571;SDS011;67214;47.454;18.966;2023-04-24T01:23:27;9.98;;;7.35;;
77571;SDS011;67214;47.454;18.966;2023-04-24T01:25:55;12.18;;;7.03;;
77571;SDS011;67214;47.454;18.966;2023-04-24T01:28:23;9.58;;;7.25;;
77571;SDS011;67214;47.454;18.966;2023-04-24T01:30:50;11.05;;;7.60;;
77571;SDS011;67214;47.454;18.966;2023-04-24T01:33:20;10.90;;;6.90;;
77571;SDS011;67214;47.454;18.966;2023-04-24T01:35:48;13.68;;;8.13;;
77571;SDS011;67214;47.454;18.966;2023-04-24T01:38:16;9.88;;;8.18;;
77571;SDS011;67214;47.454;18.966;2023-04-24T01:40:43;11.45;;;8.80;;
77571;SDS011;67214;47.454;18.966;2023-04-24T01:43:11;11.70;;;8.45;;
77571;SDS011;67214;47.454;18.966;2023-04-24T01:45:39;16.70;;;8.13;;
77571;SDS011;67214;47.454;18.966;2023-04-24T01:48:07;12.05;;;8.80;;
77571;SDS011;67214;47.454;18.966;2023-04-24T01:50:35;9.25;;;8.30;;
77571;SDS011;67214;47.454;18.966;2023-04-24T01:53:02;11.88;;;7.80;;
77571;SDS011;67214;47.454;18.966;2023-04-24T01:55:30;10.20;;;7.85;;
77571;SDS011;67214;47.454;18.966;2023-04-24T01:57:58;8.18;;;7.37;;
77571;SDS011;67214;47.454;18.966;2023-04-24T02:00:27;12.10;;;7.97;;
77571;SDS011;67214;47.454;18.966;2023-04-24T02:02:55;11.08;;;8.15;;
77571;SDS011;67214;47.454;18.966;2023-04-24T02:05:23;11.88;;;8.48;;
77571;SDS011;67214;47.454;18.966;2023-04-24T02:07:50;11.20;;;7.40;;
77571;SDS011;67214;47.454;18.966;2023-04-24T02:10:18;12.88;;;7.97;;
77571;SDS011;67214;47.454;18.966;2023-04-24T02:12:45;10.18;;;8.13;;
77571;SDS011;67214;47.454;18.966;2023-04-24T02:15:13;12.47;;;8.15;;
77571;SDS011;67214;47.454;18.966;2023-04-24T02:17:40;10.63;;;8.15;;
77571;SDS011;67214;47.454;18.966;2023-04-24T02:20:08;12.15;;;8.60;;
77571;SDS011;67214;47.454;18.966;2023-04-24T02:22:36;9.58;;;8.68;;
77571;SDS011;67214;47.454;18.966;2023-04-24T02:25:03;9.63;;;7.55;;
77571;SDS011;67214;47.454;18.966;2023-04-24T02:27:31;12.78;;;8.43;;
77571;SDS011;67214;47.454;18.966;2023-04-24T02:29:59;10.15;;;7.90;;
77571;SDS011;67214;47.454;18.966;2023-04-24T02:32:26;12.30;;;9.05;;
77571;SDS011;67214;47.454;18.966;2023-04-24T02:34:53;14.60;;;8.90;;
77571;SDS011;67214;47.454;18.966;2023-04-24T02:37:21;12.73;;;9.68;;
77571;SDS011;67214;47.454;18.966;2023-04-24T02:39:48;14.63;;;9.05;;
77571;SDS011;67214;47.454;18.966;2023-04-24T02:42:16;10.30;;;8.70;;
77571;SDS011;67214;47.454;18.966;2023-04-24T02:44:43;12.13;;;9.05;;
77571;SDS011;67214;47.454;18.966;2023-04-24T02:47:11;16.02;;;9.53;;
77571;SDS011;67214;47.454;18.966;2023-04-24T02:49:38;10.98;;;8.30;;
77571;SDS011;67214;47.454;18.966;2023-04-24T02:52:05;12.95;;;9.25;;
77571;SDS011;67214;47.454;18.966;2023-04-24T02:54:33;13.48;;;8.63;;
77571;SDS011;67214;47.454;18.966;2023-04-24T02:57:00;13.30;;;9.40;;
77571;SDS011;67214;47.454;18.966;2023-04-24T02:59:28;14.70;;;10.32;;
77571;SDS011;67214;47.454;18.966;2023-04-24T03:01:55;11.50;;;9.53;;
77571;SDS011;67214;47.454;18.966;2023-04-24T03:04:23;14.60;;;9.63;;
77571;SDS011;67214;47.454;18.966;2023-04-24T03:06:52;15.28;;;10.30;;
77571;SDS011;67214;47.454;18.966;2023-04-24T03:09:20;12.70;;;10.90;;
77571;SDS011;67214;47.454;18.966;2023-04-24T03:11:48;12.15;;;10.70;;
77571;SDS011;67214;47.454;18.966;2023-04-24T03:14:16;11.22;;;9.83;;
77571;SDS011;67214;47.454;18.966;2023-04-24T03:16:43;15.55;;;10.15;;
77571;SDS011;67214;47.454;18.966;2023-04-24T03:19:11;11.10;;;9.88;;
77571;SDS011;67214;47.454;18.966;2023-04-24T03:21:39;14.23;;;11.93;;
77571;SDS011;67214;47.454;18.966;2023-04-24T03:24:07;16.05;;;11.85;;
77571;SDS011;67214;47.454;18.966;2023-04-24T03:26:35;14.85;;;11.97;;
77571;SDS011;67214;47.454;18.966;2023-04-24T03:29:02;15.05;;;11.50;;
77571;SDS011;67214;47.454;18.966;2023-04-24T03:31:30;15.18;;;11.80;;
77571;SDS011;67214;47.454;18.966;2023-04-24T03:33:57;14.58;;;11.88;;
77571;SDS011;67214;47.454;18.966;2023-04-24T03:36:25;14.45;;;11.35;;
77571;SDS011;67214;47.454;18.966;2023-04-24T03:38:53;19.20;;;13.43;;
77571;SDS011;67214;47.454;18.966;2023-04-24T03:41:20;14.50;;;12.78;;
77571;SDS011;67214;47.454;18.966;2023-04-24T03:43:48;15.93;;;11.97;;
77571;SDS011;67214;47.454;18.966;2023-04-24T03:46:15;15.78;;;11.38;;
77571;SDS011;67214;47.454;18.966;2023-04-24T03:48:43;20.55;;;13.10;;
77571;SDS011;67214;47.454;18.966;2023-04-24T03:51:10;16.20;;;11.75;;
77571;SDS011;67214;47.454;18.966;2023-04-24T03:53:38;16.45;;;11.63;;
77571;SDS011;67214;47.454;18.966;2023-04-24T03:56:05;12.78;;;10.32;;
77571;SDS011;67214;47.454;18.966;2023-04-24T03:58:33;12.93;;;9.33;;
77571;SDS011;67214;47.454;18.966;2023-04-24T04:01:00;11.30;;;9.30;;
77571;SDS011;67214;47.454;18.966;2023-04-24T04:03:28;14.30;;;9.18;;
77571;SDS011;67214;47.454;18.966;2023-04-24T04:05:55;13.15;;;8.98;;
77571;SDS011;67214;47.454;18.966;2023-04-24T04:08:23;10.18;;;8.30;;
77571;SDS011;67214;47.454;18.966;2023-04-24T04:10:51;11.03;;;8.83;;
77571;SDS011;67214;47.454;18.966;2023-04-24T04:13:18;12.25;;;9.20;;
77571;SDS011;67214;47.454;18.966;2023-04-24T04:15:45;19.70;;;9.93;;
77571;SDS011;67214;47.454;18.966;2023-04-24T04:18:13;11.48;;;9.30;;
77571;SDS011;67214;47.454;18.966;2023-04-24T04:20:41;15.20;;;10.43;;
77571;SDS011;67214;47.454;18.966;2023-04-24T04:23:08;14.65;;;10.43;;
77571;SDS011;67214;47.454;18.966;2023-04-24T04:25:36;13.55;;;11.48;;
77571;SDS011;67214;47.454;18.966;2023-04-24T04:28:03;18.42;;;12.63;;
77571;SDS011;67214;47.454;18.966;2023-04-24T04:30:31;17.37;;;12.15;;
77571;SDS011;67214;47.454;18.966;2023-04-24T04:32:58;17.57;;;12.58;;
77571;SDS011;67214;47.454;18.966;2023-04-24T04:35:26;13.70;;;11.50;;
77571;SDS011;67214;47.454;18.966;2023-04-24T04:37:54;15.32;;;10.95;;
77571;SDS011;67214;47.454;18.966;2023-04-24T04:40:23;15.83;;;10.78;;
77571;SDS011;67214;47.454;18.966;2023-04-24T04:42:50;15.90;;;11.25;;
77571;SDS011;67214;47.454;18.966;2023-04-24T04:45:18;14.80;;;9.68;;
77571;SDS011;67214;47.454;18.966;2023-04-24T04:47:46;11.83;;;9.30;;
77571;SDS011;67214;47.454;18.966;2023-04-24T04:50:14;13.58;;;10.15;;
77571;SDS011;67214;47.454;18.966;2023-04-24T04:52:42;15.63;;;9.80;;
77571;SDS011;67214;47.454;18.966;2023-04-24T04:55:09;12.75;;;9.90;;
77571;SDS011;67214;47.454;18.966;2023-04-24T04:57:39;13.95;;;9.50;;
77571;SDS011;67214;47.454;18.966;2023-04-24T05:00:07;12.53;;;10.63;;
77571;SDS011;67214;47.454;18.966;2023-04-24T05:02:36;13.55;;;9.63;;
77571;SDS011;67214;47.454;18.966;2023-04-24T05:05:03;13.70;;;10.68;;
77571;SDS011;67214;47.454;18.966;2023-04-24T05:07:31;13.38;;;10.63;;
77571;SDS011;67214;47.454;18.966;2023-04-24T05:10:00;15.55;;;10.15;;
77571;SDS011;67214;47.454;18.966;2023-04-24T05:12:28;14.15;;;10.40;;
77571;SDS011;67214;47.454;18.966;2023-04-24T05:14:55;16.17;;;10.63;;
77571;SDS011;67214;47.454;18.966;2023-04-24T05:17:23;14.85;;;10.72;;
77571;SDS011;67214;47.454;18.966;2023-04-24T05:19:51;16.97;;;10.35;;
77571;SDS011;67214;47.454;18.966;2023-04-24T05:22:19;15.03;;;11.43;;
77571;SDS011;67214;47.454;18.966;2023-04-24T05:24:46;14.55;;;10.60;;
77571;SDS011;67214;47.454;18.966;2023-04-24T05:27:14;16.50;;;11.57;;
77571;SDS011;67214;47.454;18.966;2023-04-24T05:29:42;21.62;;;14.33;;
77571;SDS011;67214;47.454;18.966;2023-04-24T05:32:09;20.15;;;13.50;;
77571;SDS011;67214;47.454;18.966;2023-04-24T05:34:37;13.13;;;11.15;;
77571;SDS011;67214;47.454;18.966;2023-04-24T05:37:04;13.20;;;10.23;;
77571;SDS011;67214;47.454;18.966;2023-04-24T05:39:33;14.43;;;10.53;;
77571;SDS011;67214;47.454;18.966;2023-04-24T05:42:01;16.02;;;11.55;;
77571;SDS011;67214;47.454;18.966;2023-04-24T05:44:30;14.75;;;11.53;;
77571;SDS011;67214;47.454;18.966;2023-04-24T05:46:58;17.98;;;13.90;;
77571;SDS011;67214;47.454;18.966;2023-04-24T05:49:26;16.30;;;11.65;;
77571;SDS011;67214;47.454;18.966;2023-04-24T05:51:53;13.32;;;11.28;;
77571;SDS011;67214;47.454;18.966;2023-04-24T05:54:21;18.48;;;11.88;;
77571;SDS011;67214;47.454;18.966;2023-04-24T05:56:48;17.85;;;12.37;;
77571;SDS011;67214;47.454;18.966;2023-04-24T05:59:16;13.72;;;10.38;;
77571;SDS011;67214;47.454;18.966;2023-04-24T06:01:44;14.43;;;11.20;;
77571;SDS011;67214;47.454;18.966;2023-04-24T06:04:12;12.65;;;9.93;;
77571;SDS011;67214;47.454;18.966;2023-04-24T06:06:40;16.90;;;10.43;;
77571;SDS011;67214;47.454;18.966;2023-04-24T06:09:07;12.35;;;9.95;;
77571;SDS011;67214;47.454;18.966;2023-04-24T06:11:35;13.50;;;10.50;;
77571;SDS011;67214;47.454;18.966;2023-04-24T06:14:02;16.17;;;11.40;;
77571;SDS011;67214;47.454;18.966;2023-04-24T06:16:30;13.13;;;11.53;;
77571;SDS011;67214;47.454;18.966;2023-04-24T06:18:57;16.67;;;12.80;;
77571;SDS011;67214;47.454;18.966;2023-04-24T06:21:25;15.53;;;11.60;;
77571;SDS011;67214;47.454;18.966;2023-04-24T06:23:53;13.50;;;11.90;;
77571;SDS011;67214;47.454;18.966;2023-04-24T06:26:21;18.35;;;13.60;;
77571;SDS011;67214;47.454;18.966;2023-04-24T06:28:50;18.67;;;14.23;;
77571;SDS011;67214;47.454;18.966;2023-04-24T06:31:19;15.93;;;12.43;;
77571;SDS011;67214;47.454;18.966;2023-04-24T06:33:48;15.50;;;11.78;;
77571;SDS011;67214;47.454;18.966;2023-04-24T06:36:15;17.05;;;12.28;;
77571;SDS011;67214;47.454;18.966;2023-04-24T06:38:43;18.00;;;12.55;;
77571;SDS011;67214;47.454;18.966;2023-04-24T06:41:11;18.48;;;12.73;;
77571;SDS011;67214;47.454;18.966;2023-04-24T06:43:38;14.73;;;11.78;;
77571;SDS011;67214;47.454;18.966;2023-04-24T06:46:07;16.15;;;12.18;;
77571;SDS011;67214;47.454;18.966;2023-04-24T06:48:34;14.18;;;12.63;;
77571;SDS011;67214;47.454;18.966;2023-04-24T06:51:02;15.85;;;12.68;;
77571;SDS011;67214;47.454;18.966;2023-04-24T06:53:29;18.32;;;12.23;;
77571;SDS011;67214;47.454;18.966;2023-04-24T06:55:57;13.90;;;11.70;;
77571;SDS011;67214;47.454;18.966;2023-04-24T06:58:25;17.62;;;11.60;;
77571;SDS011;67214;47.454;18.966;2023-04-24T07:00:52;17.87;;;12.60;;
77571;SDS011;67214;47.454;18.966;2023-04-24T07:03:20;18.27;;;12.23;;
77571;SDS011;67214;47.454;18.966;2023-04-24T07:05:47;17.42;;;12.20;;
77571;SDS011;67214;47.454;18.966;2023-04-24T07:08:15;15.28;;;13.10;;
77571;SDS011;67214;47.454;18.966;2023-04-24T07:10:43;17.07;;;12.18;;
77571;SDS011;67214;47.454;18.966;2023-04-24T07:13:11;18.17;;;12.70;;
77571;SDS011;67214;47.454;18.966;2023-04-24T07:15:39;11.95;;;10.68;;
77571;SDS011;67214;47.454;18.966;2023-04-24T07:18:06;15.28;;;11.48;;
77571;SDS011;67214;47.454;18.966;2023-04-24T07:20:34;16.17;;;11.70;;
77571;SDS011;67214;47.454;18.966;2023-04-24T07:23:01;15.78;;;11.55;;
77571;SDS011;67214;47.454;18.966;2023-04-24T07:25:29;13.85;;;10.98;;
77571;SDS011;67214;47.454;18.966;2023-04-24T07:27:57;17.35;;;10.85;;
77571;SDS011;67214;47.454;18.966;2023-04-24T07:30:24;13.95;;;10.30;;
77571;SDS011;67214;47.454;18.966;2023-04-24T07:32:54;14.85;;;10.82;;
77571;SDS011;67214;47.454;18.966;2023-04-24T07:35:21;18.75;;;12.28;;
77571;SDS011;67214;47.454;18.966;2023-04-24T07:37:56;11.65;;;10.35;;
77571;SDS011;67214;47.454;18.966;2023-04-24T07:40:20;13.08;;;11.20;;
77571;SDS011;67214;47.454;18.966;2023-04-24T07:42:48;11.20;;;9.88;;
77571;SDS011;67214;47.454;18.966;2023-04-24T07:45:16;15.20;;;11.08;;
77571;SDS011;67214;47.454;18.966;2023-04-24T07:47:43;13.70;;;10.48;;
77571;SDS011;67214;47.454;18.966;2023-04-24T07:50:11;18.15;;;11.43;;
77571;SDS011;67214;47.454;18.966;2023-04-24T07:52:39;15.08;;;10.70;;
77571;SDS011;67214;47.454;18.966;2023-04-24T07:55:07;12.18;;;9.98;;
77571;SDS011;67214;47.454;18.966;2023-04-24T07:57:34;11.78;;;9.28;;
77571;SDS011;67214;47.454;18.966;2023-04-24T08:00:03;16.57;;;10.63;;
77571;SDS011;67214;47.454;18.966;2023-04-24T08:02:31;14.43;;;10.68;;
77571;SDS011;67214;47.454;18.966;2023-04-24T08:04:59;15.83;;;10.32;;
77571;SDS011;67214;47.454;18.966;2023-04-24T08:07:28;12.55;;;9.58;;
77571;SDS011;67214;47.454;18.966;2023-04-24T08:09:56;12.40;;;9.88;;
77571;SDS011;67214;47.454;18.966;2023-04-24T08:12:25;10.45;;;9.03;;
77571;SDS011;67214;47.454;18.966;2023-04-24T08:14:52;14.80;;;9.63;;
77571;SDS011;67214;47.454;18.966;2023-04-24T08:17:20;12.37;;;9.73;;
77571;SDS011;67214;47.454;18.966;2023-04-24T08:19:48;13.48;;;9.05;;
77571;SDS011;67214;47.454;18.966;2023-04-24T08:22:16;15.68;;;10.05;;
77571;SDS011;67214;47.454;18.966;2023-04-24T08:24:44;10.38;;;8.98;;
77571;SDS011;67214;47.454;18.966;2023-04-24T08:27:12;12.35;;;9.38;;
77571;SDS011;67214;47.454;18.966;2023-04-24T08:29:39;14.63;;;10.50;;
77571;SDS011;67214;47.454;18.966;2023-04-24T08:32:07;14.23;;;9.80;;
77571;SDS011;67214;47.454;18.966;2023-04-24T08:34:34;13.38;;;11.25;;
77571;SDS011;67214;47.454;18.966;2023-04-24T08:37:02;15.45;;;10.58;;
77571;SDS011;67214;47.454;18.966;2023-04-24T08:39:29;13.03;;;9.08;;
77571;SDS011;67214;47.454;18.966;2023-04-24T08:41:57;14.65;;;10.10;;
77571;SDS011;67214;47.454;18.966;2023-04-24T08:44:28;11.18;;;9.40;;
77571;SDS011;67214;47.454;18.966;2023-04-24T08:46:55;11.97;;;8.48;;
77571;SDS011;67214;47.454;18.966;2023-04-24T08:49:24;10.35;;;8.70;;
77571;SDS011;67214;47.454;18.966;2023-04-24T08:51:52;10.85;;;9.05;;
77571;SDS011;67214;47.454;18.966;2023-04-24T08:54:19;9.68;;;8.43;;
77571;SDS011;67214;47.454;18.966;2023-04-24T08:56:48;12.43;;;9.40;;
77571;SDS011;67214;47.454;18.966;2023-04-24T08:59:16;11.95;;;9.58;;
77571;SDS011;67214;47.454;18.966;2023-04-24T09:01:45;9.85;;;8.45;;
77571;SDS011;67214;47.454;18.966;2023-04-24T09:04:14;12.30;;;8.88;;
77571;SDS011;67214;47.454;18.966;2023-04-24T09:06:45;12.18;;;9.75;;
77571;SDS011;67214;47.454;18.966;2023-04-24T09:09:13;12.33;;;9.33;;
77571;SDS011;67214;47.454;18.966;2023-04-24T09:11:43;12.65;;;8.98;;
77571;SDS011;67214;47.454;18.966;2023-04-24T09:14:12;12.82;;;8.93;;
77571;SDS011;67214;47.454;18.966;2023-04-24T09:16:40;12.50;;;9.33;;
77571;SDS011;67214;47.454;18.966;2023-04-24T09:19:08;12.93;;;8.80;;
77571;SDS011;67214;47.454;18.966;2023-04-24T09:21:36;10.63;;;7.87;;
77571;SDS011;67214;47.454;18.966;2023-04-24T09:24:05;10.93;;;7.95;;
77571;SDS011;67214;47.454;18.966;2023-04-24T09:26:37;10.72;;;7.85;;
77571;SDS011;67214;47.454;18.966;2023-04-24T09:29:04;11.05;;;8.90;;
77571;SDS011;67214;47.454;18.966;2023-04-24T09:31:32;9.35;;;8.18;;
77571;SDS011;67214;47.454;18.966;2023-04-24T09:34:00;9.60;;;8.03;;
77571;SDS011;67214;47.454;18.966;2023-04-24T09:36:32;9.53;;;7.42;;
77571;SDS011;67214;47.454;18.966;2023-04-24T09:39:03;9.40;;;7.95;;
77571;SDS011;67214;47.454;18.966;2023-04-24T09:41:33;8.48;;;7.00;;
77571;SDS011;67214;47.454;18.966;2023-04-24T09:44:24;9.10;;;7.92;;
77571;SDS011;67214;47.454;18.966;2023-04-24T09:46:41;9.63;;;7.97;;
77571;SDS011;67214;47.454;18.966;2023-04-24T09:49:15;11.55;;;8.85;;
77571;SDS011;67214;47.454;18.966;2023-04-24T09:51:41;12.30;;;9.73;;
77571;SDS011;67214;47.454;18.966;2023-04-24T09:54:16;9.90;;;8.70;;
77571;SDS011;67214;47.454;18.966;2023-04-24T09:56:47;10.80;;;7.80;;
77571;SDS011;67214;47.454;18.966;2023-04-24T09:59:17;11.80;;;8.33;;
77571;SDS011;67214;47.454;18.966;2023-04-24T10:01:46;11.18;;;7.95;;
77571;SDS011;67214;47.454;18.966;2023-04-24T10:04:19;9.60;;;7.45;;
77571;SDS011;67214;47.454;18.966;2023-04-24T10:06:51;9.40;;;7.30;;
77571;SDS011;67214;47.454;18.966;2023-04-24T10:09:21;10.32;;;7.42;;
77571;SDS011;67214;47.454;18.966;2023-04-24T10:11:51;14.43;;;8.43;;
77571;SDS011;67214;47.454;18.966;2023-04-24T10:14:24;11.95;;;7.92;;
77571;SDS011;67214;47.454;18.966;2023-04-24T10:16:54;8.58;;;7.67;;
77571;SDS011;67214;47.454;18.966;2023-04-24T10:19:25;9.30;;;7.75;;
77571;SDS011;67214;47.454;18.966;2023-04-24T10:21:53;9.70;;;6.40;;
77571;SDS011;67214;47.454;18.966;2023-04-24T10:24:21;7.37;;;6.60;;
77571;SDS011;67214;47.454;18.966;2023-04-24T10:26:48;13.68;;;8.08;;
77571;SDS011;67214;47.454;18.966;2023-04-24T10:29:17;8.68;;;7.62;;
77571;SDS011;67214;47.454;18.966;2023-04-24T10:31:46;9.90;;;7.47;;
77571;SDS011;67214;47.454;18.966;2023-04-24T10:34:15;8.75;;;7.53;;
77571;SDS011;67214;47.454;18.966;2023-04-24T10:36:53;9.75;;;8.75;;
77571;SDS011;67214;47.454;18.966;2023-04-24T10:39:23;10.38;;;8.48;;
77571;SDS011;67214;47.454;18.966;2023-04-24T10:41:50;13.13;;;9.98;;
77571;SDS011;67214;47.454;18.966;2023-04-24T10:44:18;14.87;;;10.18;;
77571;SDS011;67214;47.454;18.966;2023-04-24T10:46:52;12.00;;;9.58;;
77571;SDS011;67214;47.454;18.966;2023-04-24T10:49:27;10.40;;;9.30;;
77571;SDS011;67214;47.454;18.966;2023-04-24T10:54:25;14.87;;;10.43;;
77571;SDS011;67214;47.454;18.966;2023-04-24T10:59:51;12.60;;;9.28;;
77571;SDS011;67214;47.454;18.966;2023-04-24T11:02:24;13.13;;;9.78;;
77571;SDS011;67214;47.454;18.966;2023-04-24T11:04:51;13.30;;;9.95;;
77571;SDS011;67214;47.454;18.966;2023-04-24T11:07:19;14.05;;;9.63;;
77571;SDS011;67214;47.454;18.966;2023-04-24T11:09:48;13.83;;;9.50;;
77571;SDS011;67214;47.454;18.966;2023-04-24T11:12:18;13.98;;;10.08;;
77571;SDS011;67214;47.454;18.966;2023-04-24T11:17:32;11.48;;;8.55;;
77571;SDS011;67214;47.454;18.966;2023-04-24T11:20:07;16.27;;;8.85;;
77571;SDS011;67214;47.454;18.966;2023-04-24T11:22:39;10.65;;;5.92;;
77571;SDS011;67214;47.454;18.966;2023-04-24T11:25:06;8.30;;;4.25;;
77571;SDS011;67214;47.454;18.966;2023-04-24T11:27:40;8.13;;;4.17;;
77571;SDS011;67214;47.454;18.966;2023-04-24T11:30:09;4.65;;;3.90;;
77571;SDS011;67214;47.454;18.966;2023-04-24T11:35:14;7.55;;;4.70;;
77571;SDS011;67214;47.454;18.966;2023-04-24T11:37:44;7.40;;;4.70;;
77571;SDS011;67214;47.454;18.966;2023-04-24T11:40:14;7.72;;;4.22;;
77571;SDS011;67214;47.454;18.966;2023-04-24T11:42:45;6.33;;;4.22;;
77571;SDS011;67214;47.454;18.966;2023-04-24T11:45:14;8.85;;;5.10;;
77571;SDS011;67214;47.454;18.966;2023-04-24T11:47:47;8.38;;;4.53;;
77571;SDS011;67214;47.454;18.966;2023-04-24T11:50:16;7.90;;;5.10;;
77571;SDS011;67214;47.454;18.966;2023-04-24T11:52:46;9.60;;;5.10;;
77571;SDS011;67214;47.454;18.966;2023-04-24T11:57:46;10.25;;;6.67;;
77571;SDS011;67214;47.454;18.966;2023-04-24T12:00:27;8.03;;;6.47;;
77571;SDS011;67214;47.454;18.966;2023-04-24T12:03:02;8.80;;;5.83;;
77571;SDS011;67214;47.454;18.966;2023-04-24T12:05:34;8.48;;;6.10;;
77571;SDS011;67214;47.454;18.966;2023-04-24T12:08:02;8.68;;;6.35;;
77571;SDS011;67214;47.454;18.966;2023-04-24T12:10:31;11.15;;;5.35;;
77571;SDS011;67214;47.454;18.966;2023-04-24T12:13:00;10.28;;;5.67;;
77571;SDS011;67214;47.454;18.966;2023-04-24T12:15:27;8.25;;;4.90;;
77571;SDS011;67214;47.454;18.966;2023-04-24T12:17:55;9.85;;;5.83;;
77571;SDS011;67214;47.454;18.966;2023-04-24T12:20:35;8.65;;;5.92;;
77571;SDS011;67214;47.454;18.966;2023-04-24T12:22:59;8.93;;;5.03;;
77571;SDS011;67214;47.454;18.966;2023-04-24T12:25:29;10.80;;;8.13;;
77571;SDS011;67214;47.454;18.966;2023-04-24T12:30:43;7.37;;;4.10;;
77571;SDS011;67214;47.454;18.966;2023-04-24T12:33:23;12.13;;;8.48;;
77571;SDS011;67214;47.454;18.966;2023-04-24T12:35:45;10.48;;;7.50;;
77571;SDS011;67214;47.454;18.966;2023-04-24T12:38:15;10.13;;;3.50;;
77571;SDS011;67214;47.454;18.966;2023-04-24T12:40:43;8.50;;;4.53;;
77571;SDS011;67214;47.454;18.966;2023-04-24T12:43:20;7.55;;;4.35;;
77571;SDS011;67214;47.454;18.966;2023-04-24T12:45:47;5.55;;;4.12;;
77571;SDS011;67214;47.454;18.966;2023-04-24T12:48:15;13.25;;;5.50;;
77571;SDS011;67214;47.454;18.966;2023-04-24T12:50:43;8.65;;;3.72;;
77571;SDS011;67214;47.454;18.966;2023-04-24T12:53:11;8.93;;;4.17;;
77571;SDS011;67214;47.454;18.966;2023-04-24T12:55:38;8.70;;;3.62;;
77571;SDS011;67214;47.454;18.966;2023-04-24T12:58:05;6.12;;;3.47;;
77571;SDS011;67214;47.454;18.966;2023-04-24T13:00:33;9.78;;;3.67;;
77571;SDS011;67214;47.454;18.966;2023-04-24T13:03:01;5.95;;;3.85;;
77571;SDS011;67214;47.454;18.966;2023-04-24T13:05:29;8.08;;;3.52;;
77571;SDS011;67214;47.454;18.966;2023-04-24T13:07:57;6.25;;;3.80;;
77571;SDS011;67214;47.454;18.966;2023-04-24T13:10:24;6.42;;;5.28;;
77571;SDS011;67214;47.454;18.966;2023-04-24T13:12:52;7.55;;;5.58;;
77571;SDS011;67214;47.454;18.966;2023-04-24T13:15:19;10.70;;;7.10;;
77571;SDS011;67214;47.454;18.966;2023-04-24T13:17:47;7.58;;;4.30;;
77571;SDS011;67214;47.454;18.966;2023-04-24T13:20:15;10.95;;;4.53;;
77571;SDS011;67214;47.454;18.966;2023-04-24T13:22:42;8.40;;;5.12;;
77571;SDS011;67214;47.454;18.966;2023-04-24T13:25:10;6.28;;;4.42;;
77571;SDS011;67214;47.454;18.966;2023-04-24T13:27:38;8.23;;;4.80;;
77571;SDS011;67214;47.454;18.966;2023-04-24T13:30:06;6.53;;;4.28;;
77571;SDS011;67214;47.454;18.966;2023-04-24T13:32:34;4.78;;;3.95;;
77571;SDS011;67214;47.454;18.966;2023-04-24T13:35:02;5.83;;;4.87;;
77571;SDS011;67214;47.454;18.966;2023-04-24T13:37:29;10.98;;;5.55;;
77571;SDS011;67214;47.454;18.966;2023-04-24T13:39:57;7.50;;;5.50;;
77571;SDS011;67214;47.454;18.966;2023-04-24T13:42:24;14.20;;;5.85;;
77571;SDS011;67214;47.454;18.966;2023-04-24T13:44:52;7.90;;;6.00;;
77571;SDS011;67214;47.454;18.966;2023-04-24T13:47:20;12.15;;;7.67;;
77571;SDS011;67214;47.454;18.966;2023-04-24T13:49:47;10.58;;;8.58;;
77571;SDS011;67214;47.454;18.966;2023-04-24T13:52:15;14.70;;;10.20;;
77571;SDS011;67214;47.454;18.966;2023-04-24T13:54:43;18.62;;;9.60;;
77571;SDS011;67214;47.454;18.966;2023-04-24T13:57:10;13.98;;;9.03;;
77571;SDS011;67214;47.454;18.966;2023-04-24T13:59:37;16.15;;;9.33;;
77571;SDS011;67214;47.454;18.966;2023-04-24T14:02:05;14.68;;;9.00;;
77571;SDS011;67214;47.454;18.966;2023-04-24T14:04:33;14.93;;;10.13;;
77571;SDS011;67214;47.454;18.966;2023-04-24T14:07:00;12.80;;;9.05;;
77571;SDS011;67214;47.454;18.966;2023-04-24T14:09:28;23.35;;;14.10;;
77571;SDS011;67214;47.454;18.966;2023-04-24T14:11:55;14.15;;;10.55;;
77571;SDS011;67214;47.454;18.966;2023-04-24T14:14:23;17.02;;;9.58;;
77571;SDS011;67214;47.454;18.966;2023-04-24T14:16:50;15.80;;;10.30;;
77571;SDS011;67214;47.454;18.966;2023-04-24T14:19:18;13.60;;;9.35;;
77571;SDS011;67214;47.454;18.966;2023-04-24T14:21:45;10.80;;;7.92;;
77571;SDS011;67214;47.454;18.966;2023-04-24T14:24:13;12.40;;;9.78;;
77571;SDS011;67214;47.454;18.966;2023-04-24T14:26:41;12.23;;;10.20;;
77571;SDS011;67214;47.454;18.966;2023-04-24T14:29:08;19.75;;;15.03;;
77571;SDS011;67214;47.454;18.966;2023-04-24T14:31:36;15.55;;;11.70;;
77571;SDS011;67214;47.454;18.966;2023-04-24T14:34:03;13.55;;;10.95;;
77571;SDS011;67214;47.454;18.966;2023-04-24T14:36:31;12.10;;;10.90;;
77571;SDS011;67214;47.454;18.966;2023-04-24T14:38:58;12.20;;;10.10;;
77571;SDS011;67214;47.454;18.966;2023-04-24T14:41:27;15.28;;;10.58;;
77571;SDS011;67214;47.454;18.966;2023-04-24T14:43:55;12.68;;;10.50;;